Shawanese, Pennsylvania
Current Conditions -  °F | °C
As of 8:54 AM on Sunday 23 Nov 2014 (Local Time) from KAVP Reporting Station
Scattered Clouds Scattered Clouds  
Wind Chill: 39°   Ceiling: Unl
Heat Index: 43°   Visibility: 10mi
Dew Point: 19°   Wind: 7mph
Humidity: 38%   Direction: 210°SSW
Pressure: 30.17"   Gusts: NA
Location:  41.35°N, 76.03°W
Report Text: KAVP 231354Z AUTO 21006KT 10SM SCT090 06/M07 A3017 RMK AO2 SLP221 T00611072
Loading
Personal Weather Stations






























Interactive Weather Map New forecast layout! Learn more

10-Day Weather Forecast

Advertisements
Track Severe Weather on mobile